sensor_id;sensor_type;location;lat;lon;timestamp;temperature;humidity
2603;DHT22;1311;47.966;7.958;2023-04-07T00:01:29;8.50;99.90
2603;DHT22;1311;47.966;7.958;2023-04-07T00:03:56;8.50;99.90
2603;DHT22;1311;47.966;7.958;2023-04-07T00:06:23;8.50;99.90
2603;DHT22;1311;47.966;7.958;2023-04-07T00:08:51;8.50;99.90
2603;DHT22;1311;47.966;7.958;2023-04-07T00:11:18;8.50;99.90
2603;DHT22;1311;47.966;7.958;2023-04-07T00:13:46;8.50;99.90
2603;DHT22;1311;47.966;7.958;2023-04-07T00:16:13;8.50;99.90
2603;DHT22;1311;47.966;7.958;2023-04-07T00:18:40;8.50;99.90
2603;DHT22;1311;47.966;7.958;2023-04-07T00:21:06;8.50;99.90
2603;DHT22;1311;47.966;7.958;2023-04-07T00:23:33;8.50;99.90
2603;DHT22;1311;47.966;7.958;2023-04-07T00:26:00;8.50;99.90
2603;DHT22;1311;47.966;7.958;2023-04-07T00:28:27;8.50;99.90
2603;DHT22;1311;47.966;7.958;2023-04-07T00:30:55;8.60;99.90
2603;DHT22;1311;47.966;7.958;2023-04-07T00:33:22;8.50;99.90
2603;DHT22;1311;47.966;7.958;2023-04-07T00:35:48;8.40;99.90
2603;DHT22;1311;47.966;7.958;2023-04-07T00:38:15;8.40;99.90
2603;DHT22;1311;47.966;7.958;2023-04-07T00:40:42;8.40;99.90
2603;DHT22;1311;47.966;7.958;2023-04-07T00:43:09;8.20;99.90
2603;DHT22;1311;47.966;7.958;2023-04-07T00:45:35;8.20;99.90
2603;DHT22;1311;47.966;7.958;2023-04-07T00:48:04;8.20;99.90
2603;DHT22;1311;47.966;7.958;2023-04-07T00:50:31;8.10;99.90
2603;DHT22;1311;47.966;7.958;2023-04-07T00:52:58;8.00;99.90
2603;DHT22;1311;47.966;7.958;2023-04-07T00:55:26;7.90;99.90
2603;DHT22;1311;47.966;7.958;2023-04-07T00:57:53;7.90;99.90
2603;DHT22;1311;47.966;7.958;2023-04-07T01:00:20;7.90;99.90
2603;DHT22;1311;47.966;7.958;2023-04-07T01:02:51;7.90;99.90
2603;DHT22;1311;47.966;7.958;2023-04-07T01:05:25;7.90;99.90
2603;DHT22;1311;47.966;7.958;2023-04-07T01:07:59;7.80;99.90
2603;DHT22;1311;47.966;7.958;2023-04-07T01:10:32;7.90;99.90
2603;DHT22;1311;47.966;7.958;2023-04-07T01:13:04;7.80;99.90
2603;DHT22;1311;47.966;7.958;2023-04-07T01:15:33;7.80;99.90
2603;DHT22;1311;47.966;7.958;2023-04-07T01:18:07;7.80;99.90
2603;DHT22;1311;47.966;7.958;2023-04-07T01:20:37;7.80;99.90
2603;DHT22;1311;47.966;7.958;2023-04-07T01:23:06;7.80;99.90
2603;DHT22;1311;47.966;7.958;2023-04-07T01:25:43;7.90;99.90
2603;DHT22;1311;47.966;7.958;2023-04-07T01:28:40;7.90;99.90
2603;DHT22;1311;47.966;7.958;2023-04-07T01:31:11;7.70;99.90
2603;DHT22;1311;47.966;7.958;2023-04-07T01:33:42;7.70;99.90
2603;DHT22;1311;47.966;7.958;2023-04-07T01:36:11;7.70;99.90
2603;DHT22;1311;47.966;7.958;2023-04-07T01:38:39;7.70;99.90
2603;DHT22;1311;47.966;7.958;2023-04-07T01:41:07;7.70;99.90
2603;DHT22;1311;47.966;7.958;2023-04-07T01:43:36;7.70;99.90
2603;DHT22;1311;47.966;7.958;2023-04-07T01:46:04;7.80;99.90
2603;DHT22;1311;47.966;7.958;2023-04-07T01:48:33;7.80;99.90
2603;DHT22;1311;47.966;7.958;2023-04-07T01:51:02;7.80;99.90
2603;DHT22;1311;47.966;7.958;2023-04-07T01:53:30;7.70;99.90
2603;DHT22;1311;47.966;7.958;2023-04-07T01:55:57;7.80;99.90
2603;DHT22;1311;47.966;7.958;2023-04-07T01:58:24;7.70;99.90
2603;DHT22;1311;47.966;7.958;2023-04-07T02:00:51;7.70;99.90
2603;DHT22;1311;47.966;7.958;2023-04-07T02:03:22;7.70;99.90
2603;DHT22;1311;47.966;7.958;2023-04-07T02:05:54;7.70;99.90
2603;DHT22;1311;47.966;7.958;2023-04-07T02:08:23;7.60;99.90
2603;DHT22;1311;47.966;7.958;2023-04-07T02:10:50;7.60;99.90
2603;DHT22;1311;47.966;7.958;2023-04-07T02:13:19;7.60;99.90
2603;DHT22;1311;47.966;7.958;2023-04-07T02:15:47;7.60;99.90
2603;DHT22;1311;47.966;7.958;2023-04-07T02:18:15;7.60;99.90
2603;DHT22;1311;47.966;7.958;2023-04-07T02:20:44;7.50;99.90
2603;DHT22;1311;47.966;7.958;2023-04-07T02:23:13;7.50;99.90
2603;DHT22;1311;47.966;7.958;2023-04-07T02:25:40;7.50;99.90
2603;DHT22;1311;47.966;7.958;2023-04-07T02:28:07;7.40;99.90
2603;DHT22;1311;47.966;7.958;2023-04-07T02:30:34;7.40;99.90
2603;DHT22;1311;47.966;7.958;2023-04-07T02:33:02;7.30;99.90
2603;DHT22;1311;47.966;7.958;2023-04-07T02:35:29;7.30;99.90
2603;DHT22;1311;47.966;7.958;2023-04-07T02:37:56;7.30;99.90
2603;DHT22;1311;47.966;7.958;2023-04-07T02:40:24;7.20;99.90
2603;DHT22;1311;47.966;7.958;2023-04-07T02:42:51;7.20;99.90
2603;DHT22;1311;47.966;7.958;2023-04-07T02:45:17;7.10;99.90
2603;DHT22;1311;47.966;7.958;2023-04-07T02:47:44;7.10;99.90
2603;DHT22;1311;47.966;7.958;2023-04-07T02:50:11;7.00;99.90
2603;DHT22;1311;47.966;7.958;2023-04-07T02:52:37;7.00;99.90
2603;DHT22;1311;47.966;7.958;2023-04-07T02:55:05;7.00;99.90
2603;DHT22;1311;47.966;7.958;2023-04-07T02:57:34;7.00;99.90
2603;DHT22;1311;47.966;7.958;2023-04-07T03:00:01;6.90;99.90
2603;DHT22;1311;47.966;7.958;2023-04-07T03:02:28;6.80;99.90
2603;DHT22;1311;47.966;7.958;2023-04-07T03:04:55;6.80;99.90
2603;DHT22;1311;47.966;7.958;2023-04-07T03:07:21;6.70;99.90
2603;DHT22;1311;47.966;7.958;2023-04-07T03:09:48;6.60;99.90
2603;DHT22;1311;47.966;7.958;2023-04-07T03:12:15;6.60;99.90
2603;DHT22;1311;47.966;7.958;2023-04-07T03:14:43;6.50;99.90
2603;DHT22;1311;47.966;7.958;2023-04-07T03:17:10;6.40;99.90
2603;DHT22;1311;47.966;7.958;2023-04-07T03:19:36;6.40;99.90
2603;DHT22;1311;47.966;7.958;2023-04-07T03:22:03;6.30;99.90
2603;DHT22;1311;47.966;7.958;2023-04-07T03:24:30;6.30;99.90
2603;DHT22;1311;47.966;7.958;2023-04-07T03:26:56;6.20;99.90
2603;DHT22;1311;47.966;7.958;2023-04-07T03:29:23;6.30;99.90
2603;DHT22;1311;47.966;7.958;2023-04-07T03:31:51;6.40;99.90
2603;DHT22;1311;47.966;7.958;2023-04-07T03:34:18;6.40;99.90
2603;DHT22;1311;47.966;7.958;2023-04-07T03:36:45;6.40;99.90
2603;DHT22;1311;47.966;7.958;2023-04-07T03:39:12;6.40;99.90
2603;DHT22;1311;47.966;7.958;2023-04-07T03:41:38;6.40;99.90
2603;DHT22;1311;47.966;7.958;2023-04-07T03:44:05;6.40;99.90
2603;DHT22;1311;47.966;7.958;2023-04-07T03:46:32;6.30;99.90
2603;DHT22;1311;47.966;7.958;2023-04-07T03:49:00;6.30;99.90
2603;DHT22;1311;47.966;7.958;2023-04-07T03:51:26;6.30;99.90
2603;DHT22;1311;47.966;7.958;2023-04-07T03:53:53;6.30;99.90
2603;DHT22;1311;47.966;7.958;2023-04-07T03:56:20;6.30;99.90
2603;DHT22;1311;47.966;7.958;2023-04-07T03:58:47;6.30;99.90
2603;DHT22;1311;47.966;7.958;2023-04-07T04:01:14;6.30;99.90
2603;DHT22;1311;47.966;7.958;2023-04-07T04:03:41;6.40;99.90
2603;DHT22;1311;47.966;7.958;2023-04-07T04:06:09;6.40;99.90
2603;DHT22;1311;47.966;7.958;2023-04-07T04:08:36;6.40;99.90
2603;DHT22;1311;47.966;7.958;2023-04-07T04:11:03;6.30;99.90
2603;DHT22;1311;47.966;7.958;2023-04-07T04:13:29;6.30;99.90
2603;DHT22;1311;47.966;7.958;2023-04-07T04:15:56;6.30;99.90
2603;DHT22;1311;47.966;7.958;2023-04-07T04:18:23;6.40;99.90
2603;DHT22;1311;47.966;7.958;2023-04-07T04:20:50;6.30;99.90
2603;DHT22;1311;47.966;7.958;2023-04-07T04:23:18;6.40;99.90
2603;DHT22;1311;47.966;7.958;2023-04-07T04:25:44;6.40;99.90
2603;DHT22;1311;47.966;7.958;2023-04-07T04:28:11;6.50;99.90
2603;DHT22;1311;47.966;7.958;2023-04-07T04:30:38;6.40;99.90
2603;DHT22;1311;47.966;7.958;2023-04-07T04:33:05;6.40;99.90
2603;DHT22;1311;47.966;7.958;2023-04-07T04:35:33;6.40;99.90
2603;DHT22;1311;47.966;7.958;2023-04-07T04:38:00;6.40;99.90
2603;DHT22;1311;47.966;7.958;2023-04-07T04:40:28;6.40;99.90
2603;DHT22;1311;47.966;7.958;2023-04-07T04:42:54;6.40;99.90
2603;DHT22;1311;47.966;7.958;2023-04-07T04:45:21;6.50;99.90
2603;DHT22;1311;47.966;7.958;2023-04-07T04:47:48;6.50;99.90
2603;DHT22;1311;47.966;7.958;2023-04-07T04:50:15;6.40;99.90
2603;DHT22;1311;47.966;7.958;2023-04-07T04:52:41;6.40;99.90
2603;DHT22;1311;47.966;7.958;2023-04-07T04:55:09;6.50;99.90
2603;DHT22;1311;47.966;7.958;2023-04-07T04:57:37;6.40;99.90
2603;DHT22;1311;47.966;7.958;2023-04-07T05:00:06;6.40;99.90
2603;DHT22;1311;47.966;7.958;2023-04-07T05:02:33;6.50;99.90
2603;DHT22;1311;47.966;7.958;2023-04-07T05:04:59;6.50;99.90
2603;DHT22;1311;47.966;7.958;2023-04-07T05:07:26;6.50;99.90
2603;DHT22;1311;47.966;7.958;2023-04-07T05:09:53;6.50;99.90
2603;DHT22;1311;47.966;7.958;2023-04-07T05:12:20;6.60;99.90
2603;DHT22;1311;47.966;7.958;2023-04-07T05:14:48;6.60;99.90
2603;DHT22;1311;47.966;7.958;2023-04-07T05:17:15;6.70;99.90
2603;DHT22;1311;47.966;7.958;2023-04-07T05:19:42;6.70;99.90
2603;DHT22;1311;47.966;7.958;2023-04-07T05:22:09;6.70;99.90
2603;DHT22;1311;47.966;7.958;2023-04-07T05:24:35;6.70;99.90
2603;DHT22;1311;47.966;7.958;2023-04-07T05:27:02;6.70;99.90
2603;DHT22;1311;47.966;7.958;2023-04-07T05:29:29;6.70;99.90
2603;DHT22;1311;47.966;7.958;2023-04-07T05:31:57;6.80;99.90
2603;DHT22;1311;47.966;7.958;2023-04-07T05:34:25;6.80;99.90
2603;DHT22;1311;47.966;7.958;2023-04-07T05:36:52;6.90;99.90
2603;DHT22;1311;47.966;7.958;2023-04-07T05:39:19;6.90;99.90
2603;DHT22;1311;47.966;7.958;2023-04-07T05:41:46;6.90;99.90
2603;DHT22;1311;47.966;7.958;2023-04-07T05:44:12;6.80;99.90
2603;DHT22;1311;47.966;7.958;2023-04-07T05:46:39;6.80;99.90
2603;DHT22;1311;47.966;7.958;2023-04-07T05:49:07;6.70;99.90
2603;DHT22;1311;47.966;7.958;2023-04-07T05:51:34;6.70;99.90
2603;DHT22;1311;47.966;7.958;2023-04-07T05:54:01;6.70;99.90
2603;DHT22;1311;47.966;7.958;2023-04-07T05:56:28;6.70;99.90
2603;DHT22;1311;47.966;7.958;2023-04-07T05:58:55;6.70;99.90
2603;DHT22;1311;47.966;7.958;2023-04-07T06:01:23;6.70;99.90
2603;DHT22;1311;47.966;7.958;2023-04-07T06:03:50;6.80;99.90
2603;DHT22;1311;47.966;7.958;2023-04-07T06:06:18;6.80;99.90
2603;DHT22;1311;47.966;7.958;2023-04-07T06:08:45;6.90;99.90
2603;DHT22;1311;47.966;7.958;2023-04-07T06:11:12;6.90;99.90
2603;DHT22;1311;47.966;7.958;2023-04-07T06:13:38;6.90;99.90
2603;DHT22;1311;47.966;7.958;2023-04-07T06:16:06;7.00;99.90
2603;DHT22;1311;47.966;7.958;2023-04-07T06:18:32;7.00;99.90
2603;DHT22;1311;47.966;7.958;2023-04-07T06:20:59;7.00;99.90
2603;DHT22;1311;47.966;7.958;2023-04-07T06:23:27;7.10;99.90
2603;DHT22;1311;47.966;7.958;2023-04-07T06:25:54;7.20;99.90
2603;DHT22;1311;47.966;7.958;2023-04-07T06:28:21;7.30;99.90
2603;DHT22;1311;47.966;7.958;2023-04-07T06:30:47;7.30;99.90
2603;DHT22;1311;47.966;7.958;2023-04-07T06:33:14;7.30;99.90
2603;DHT22;1311;47.966;7.958;2023-04-07T06:35:41;7.50;99.90
2603;DHT22;1311;47.966;7.958;2023-04-07T06:38:09;7.80;99.90
2603;DHT22;1311;47.966;7.958;2023-04-07T06:40:38;8.00;99.90
2603;DHT22;1311;47.966;7.958;2023-04-07T06:43:04;8.00;99.90
2603;DHT22;1311;47.966;7.958;2023-04-07T06:45:31;8.10;99.90
2603;DHT22;1311;47.966;7.958;2023-04-07T06:47:58;8.20;99.90
2603;DHT22;1311;47.966;7.958;2023-04-07T06:50:25;8.20;99.90
2603;DHT22;1311;47.966;7.958;2023-04-07T06:52:51;8.20;99.90
2603;DHT22;1311;47.966;7.958;2023-04-07T06:55:18;8.20;99.90
2603;DHT22;1311;47.966;7.958;2023-04-07T06:57:46;8.30;99.90
2603;DHT22;1311;47.966;7.958;2023-04-07T07:00:15;8.30;99.90
2603;DHT22;1311;47.966;7.958;2023-04-07T07:02:42;8.30;99.90
2603;DHT22;1311;47.966;7.958;2023-04-07T07:05:09;8.30;99.90
2603;DHT22;1311;47.966;7.958;2023-04-07T07:07:36;8.30;99.90
2603;DHT22;1311;47.966;7.958;2023-04-07T07:10:03;8.20;99.90
2603;DHT22;1311;47.966;7.958;2023-04-07T07:12:30;8.10;99.90
2603;DHT22;1311;47.966;7.958;2023-04-07T07:14:59;8.40;99.90
2603;DHT22;1311;47.966;7.958;2023-04-07T07:17:25;8.30;99.90
2603;DHT22;1311;47.966;7.958;2023-04-07T07:19:52;8.50;99.90
2603;DHT22;1311;47.966;7.958;2023-04-07T07:22:19;8.70;99.90
2603;DHT22;1311;47.966;7.958;2023-04-07T07:24:46;8.90;99.90
2603;DHT22;1311;47.966;7.958;2023-04-07T07:27:12;9.00;99.90
2603;DHT22;1311;47.966;7.958;2023-04-07T07:29:39;9.10;99.90
2603;DHT22;1311;47.966;7.958;2023-04-07T07:32:07;9.30;99.90
2603;DHT22;1311;47.966;7.958;2023-04-07T07:34:34;9.40;99.90
2603;DHT22;1311;47.966;7.958;2023-04-07T07:37:01;9.40;99.90
2603;DHT22;1311;47.966;7.958;2023-04-07T07:39:28;9.60;99.90
2603;DHT22;1311;47.966;7.958;2023-04-07T07:41:55;9.60;99.90
2603;DHT22;1311;47.966;7.958;2023-04-07T07:44:22;9.30;99.90
2603;DHT22;1311;47.966;7.958;2023-04-07T07:46:49;9.20;99.90
2603;DHT22;1311;47.966;7.958;2023-04-07T07:49:17;9.10;99.90
2603;DHT22;1311;47.966;7.958;2023-04-07T07:51:44;9.10;99.90
2603;DHT22;1311;47.966;7.958;2023-04-07T07:54:12;9.20;99.90
2603;DHT22;1311;47.966;7.958;2023-04-07T07:56:38;9.20;99.90
2603;DHT22;1311;47.966;7.958;2023-04-07T07:59:05;9.20;99.90
2603;DHT22;1311;47.966;7.958;2023-04-07T08:01:32;9.10;99.90
2603;DHT22;1311;47.966;7.958;2023-04-07T08:03:59;9.10;99.90
2603;DHT22;1311;47.966;7.958;2023-04-07T08:06:27;9.00;99.90
2603;DHT22;1311;47.966;7.958;2023-04-07T08:08:55;9.00;99.90
2603;DHT22;1311;47.966;7.958;2023-04-07T08:11:23;9.10;99.90
2603;DHT22;1311;47.966;7.958;2023-04-07T08:13:49;9.10;99.90
2603;DHT22;1311;47.966;7.958;2023-04-07T08:16:18;9.00;99.90
2603;DHT22;1311;47.966;7.958;2023-04-07T08:18:45;8.90;99.90
2603;DHT22;1311;47.966;7.958;2023-04-07T08:21:12;9.10;99.90
2603;DHT22;1311;47.966;7.958;2023-04-07T08:23:40;9.10;99.90
2603;DHT22;1311;47.966;7.958;2023-04-07T08:26:07;9.10;99.90
2603;DHT22;1311;47.966;7.958;2023-04-07T08:28:33;9.10;99.90
2603;DHT22;1311;47.966;7.958;2023-04-07T08:31:01;9.00;99.90
2603;DHT22;1311;47.966;7.958;2023-04-07T08:33:27;9.00;99.90
2603;DHT22;1311;47.966;7.958;2023-04-07T08:35:54;8.90;99.90
2603;DHT22;1311;47.966;7.958;2023-04-07T08:38:21;9.00;99.90
2603;DHT22;1311;47.966;7.958;2023-04-07T08:40:59;9.10;99.90
2603;DHT22;1311;47.966;7.958;2023-04-07T08:43:28;9.10;99.90
2603;DHT22;1311;47.966;7.958;2023-04-07T08:45:56;9.00;99.90
2603;DHT22;1311;47.966;7.958;2023-04-07T08:48:23;9.00;99.90
2603;DHT22;1311;47.966;7.958;2023-04-07T08:50:52;9.00;99.90
2603;DHT22;1311;47.966;7.958;2023-04-07T08:53:23;9.10;99.90
2603;DHT22;1311;47.966;7.958;2023-04-07T08:55:54;9.10;99.90
2603;DHT22;1311;47.966;7.958;2023-04-07T08:58:21;9.20;99.90
2603;DHT22;1311;47.966;7.958;2023-04-07T09:00:48;9.20;99.90
2603;DHT22;1311;47.966;7.958;2023-04-07T09:03:16;9.30;99.90
2603;DHT22;1311;47.966;7.958;2023-04-07T09:05:44;9.30;99.90
2603;DHT22;1311;47.966;7.958;2023-04-07T09:08:11;9.20;99.90
2603;DHT22;1311;47.966;7.958;2023-04-07T09:10:38;9.10;99.90
2603;DHT22;1311;47.966;7.958;2023-04-07T09:13:06;9.10;99.90
2603;DHT22;1311;47.966;7.958;2023-04-07T09:15:33;9.10;99.90
2603;DHT22;1311;47.966;7.958;2023-04-07T09:18:00;9.10;99.90
2603;DHT22;1311;47.966;7.958;2023-04-07T09:20:27;9.00;99.90
2603;DHT22;1311;47.966;7.958;2023-04-07T09:22:54;9.10;99.90
2603;DHT22;1311;47.966;7.958;2023-04-07T09:25:22;9.00;99.90
2603;DHT22;1311;47.966;7.958;2023-04-07T09:27:56;9.20;99.90
2603;DHT22;1311;47.966;7.958;2023-04-07T09:30:24;9.20;99.90
2603;DHT22;1311;47.966;7.958;2023-04-07T09:32:51;9.40;99.90
2603;DHT22;1311;47.966;7.958;2023-04-07T09:35:18;9.40;99.90
2603;DHT22;1311;47.966;7.958;2023-04-07T09:38:00;9.50;99.90
2603;DHT22;1311;47.966;7.958;2023-04-07T09:40:28;9.30;99.90
2603;DHT22;1311;47.966;7.958;2023-04-07T09:42:54;9.50;99.90
2603;DHT22;1311;47.966;7.958;2023-04-07T09:45:25;9.70;99.90
2603;DHT22;1311;47.966;7.958;2023-04-07T09:47:52;10.00;99.90
2603;DHT22;1311;47.966;7.958;2023-04-07T09:50:30;10.10;99.90
2603;DHT22;1311;47.966;7.958;2023-04-07T09:52:59;10.60;99.90
2603;DHT22;1311;47.966;7.958;2023-04-07T09:55:27;10.80;99.90
2603;DHT22;1311;47.966;7.958;2023-04-07T09:57:54;10.70;99.90
2603;DHT22;1311;47.966;7.958;2023-04-07T10:00:21;10.90;99.90
2603;DHT22;1311;47.966;7.958;2023-04-07T10:02:50;10.50;99.90
2603;DHT22;1311;47.966;7.958;2023-04-07T10:05:17;10.40;99.90
2603;DHT22;1311;47.966;7.958;2023-04-07T10:07:45;10.50;99.90
2603;DHT22;1311;47.966;7.958;2023-04-07T10:10:12;10.60;99.90
2603;DHT22;1311;47.966;7.958;2023-04-07T10:12:40;10.30;99.90
2603;DHT22;1311;47.966;7.958;2023-04-07T10:15:11;9.90;99.90
2603;DHT22;1311;47.966;7.958;2023-04-07T10:17:42;10.20;99.90
2603;DHT22;1311;47.966;7.958;2023-04-07T10:20:14;10.30;99.90
2603;DHT22;1311;47.966;7.958;2023-04-07T10:22:42;10.30;99.90
2603;DHT22;1311;47.966;7.958;2023-04-07T10:25:13;10.20;99.90
2603;DHT22;1311;47.966;7.958;2023-04-07T10:27:47;10.10;99.90
2603;DHT22;1311;47.966;7.958;2023-04-07T10:30:22;10.40;99.90
2603;DHT22;1311;47.966;7.958;2023-04-07T10:32:49;10.50;99.90
2603;DHT22;1311;47.966;7.958;2023-04-07T10:35:18;10.40;99.90
2603;DHT22;1311;47.966;7.958;2023-04-07T10:38:10;10.50;99.90
2603;DHT22;1311;47.966;7.958;2023-04-07T10:40:38;10.50;99.90
2603;DHT22;1311;47.966;7.958;2023-04-07T10:43:06;10.60;99.90
2603;DHT22;1311;47.966;7.958;2023-04-07T10:45:55;10.70;99.90
2603;DHT22;1311;47.966;7.958;2023-04-07T10:48:24;10.80;99.90
2603;DHT22;1311;47.966;7.958;2023-04-07T10:51:13;10.90;99.90
2603;DHT22;1311;47.966;7.958;2023-04-07T10:54:14;10.60;99.90
2603;DHT22;1311;47.966;7.958;2023-04-07T10:57:10;10.50;99.90
2603;DHT22;1311;47.966;7.958;2023-04-07T10:59:39;10.30;99.90
2603;DHT22;1311;47.966;7.958;2023-04-07T11:02:33;10.20;99.90
2603;DHT22;1311;47.966;7.958;2023-04-07T11:05:00;10.10;99.90
2603;DHT22;1311;47.966;7.958;2023-04-07T11:07:46;9.70;99.90
2603;DHT22;1311;47.966;7.958;2023-04-07T11:10:14;9.60;99.90
2603;DHT22;1311;47.966;7.958;2023-04-07T11:12:43;9.20;99.90
2603;DHT22;1311;47.966;7.958;2023-04-07T11:15:18;8.80;99.90
2603;DHT22;1311;47.966;7.958;2023-04-07T11:17:46;9.10;99.90
2603;DHT22;1311;47.966;7.958;2023-04-07T11:20:40;9.20;99.90
2603;DHT22;1311;47.966;7.958;2023-04-07T11:23:08;9.20;99.90
2603;DHT22;1311;47.966;7.958;2023-04-07T11:25:35;9.30;99.90
2603;DHT22;1311;47.966;7.958;2023-04-07T11:28:03;9.00;99.90
2603;DHT22;1311;47.966;7.958;2023-04-07T11:30:30;9.10;99.90
2603;DHT22;1311;47.966;7.958;2023-04-07T11:32:57;8.90;99.90
2603;DHT22;1311;47.966;7.958;2023-04-07T11:35:24;9.00;99.90
2603;DHT22;1311;47.966;7.958;2023-04-07T11:37:56;9.20;99.90
2603;DHT22;1311;47.966;7.958;2023-04-07T11:40:32;9.10;99.90
2603;DHT22;1311;47.966;7.958;2023-04-07T11:43:00;8.90;99.90
2603;DHT22;1311;47.966;7.958;2023-04-07T11:45:27;8.90;99.90
2603;DHT22;1311;47.966;7.958;2023-04-07T11:47:54;8.90;99.90
2603;DHT22;1311;47.966;7.958;2023-04-07T11:50:39;8.90;99.90
2603;DHT22;1311;47.966;7.958;2023-04-07T11:53:06;8.80;99.90
2603;DHT22;1311;47.966;7.958;2023-04-07T11:55:34;8.90;99.90
2603;DHT22;1311;47.966;7.958;2023-04-07T11:58:05;9.10;99.90
2603;DHT22;1311;47.966;7.958;2023-04-07T12:00:34;9.10;99.90
2603;DHT22;1311;47.966;7.958;2023-04-07T12:03:09;9.20;99.90
2603;DHT22;1311;47.966;7.958;2023-04-07T12:05:52;9.20;99.90
2603;DHT22;1311;47.966;7.958;2023-04-07T12:08:21;9.30;99.90
2603;DHT22;1311;47.966;7.958;2023-04-07T12:11:06;9.10;99.90
2603;DHT22;1311;47.966;7.958;2023-04-07T12:13:33;9.10;99.90
2603;DHT22;1311;47.966;7.958;2023-04-07T12:16:01;8.90;99.90
2603;DHT22;1311;47.966;7.958;2023-04-07T12:18:28;8.90;99.90
2603;DHT22;1311;47.966;7.958;2023-04-07T12:20:55;8.80;99.90
2603;DHT22;1311;47.966;7.958;2023-04-07T12:23:23;8.50;99.90
2603;DHT22;1311;47.966;7.958;2023-04-07T12:25:50;8.50;99.90
2603;DHT22;1311;47.966;7.958;2023-04-07T12:28:18;8.50;99.90
2603;DHT22;1311;47.966;7.958;2023-04-07T12:30:44;8.50;99.90
2603;DHT22;1311;47.966;7.958;2023-04-07T12:33:11;8.50;99.90
2603;DHT22;1311;47.966;7.958;2023-04-07T12:35:38;8.60;99.90
2603;DHT22;1311;47.966;7.958;2023-04-07T12:38:05;8.60;99.90
2603;DHT22;1311;47.966;7.958;2023-04-07T12:40:32;8.40;99.90
2603;DHT22;1311;47.966;7.958;2023-04-07T12:43:00;8.60;99.90
2603;DHT22;1311;47.966;7.958;2023-04-07T12:45:29;8.60;99.90
2603;DHT22;1311;47.966;7.958;2023-04-07T12:47:56;8.70;99.90
2603;DHT22;1311;47.966;7.958;2023-04-07T12:50:24;8.70;99.90
2603;DHT22;1311;47.966;7.958;2023-04-07T12:52:51;8.60;99.90
2603;DHT22;1311;47.966;7.958;2023-04-07T12:55:18;8.50;99.90
2603;DHT22;1311;47.966;7.958;2023-04-07T12:57:45;8.50;99.90
2603;DHT22;1311;47.966;7.958;2023-04-07T13:00:13;8.60;99.90
2603;DHT22;1311;47.966;7.958;2023-04-07T13:02:42;8.70;99.90
2603;DHT22;1311;47.966;7.958;2023-04-07T13:05:09;8.70;99.90
2603;DHT22;1311;47.966;7.958;2023-04-07T13:07:36;8.80;99.90
2603;DHT22;1311;47.966;7.958;2023-04-07T13:10:03;8.70;99.90
2603;DHT22;1311;47.966;7.958;2023-04-07T13:12:32;8.90;99.90
2603;DHT22;1311;47.966;7.958;2023-04-07T13:14:59;8.80;99.90
2603;DHT22;1311;47.966;7.958;2023-04-07T13:17:26;8.70;99.90
2603;DHT22;1311;47.966;7.958;2023-04-07T13:19:55;8.90;99.90
2603;DHT22;1311;47.966;7.958;2023-04-07T13:22:22;9.00;99.90
2603;DHT22;1311;47.966;7.958;2023-04-07T13:24:49;8.80;99.90
2603;DHT22;1311;47.966;7.958;2023-04-07T13:27:16;8.90;99.90
2603;DHT22;1311;47.966;7.958;2023-04-07T13:29:43;8.90;99.90
2603;DHT22;1311;47.966;7.958;2023-04-07T13:32:10;8.80;99.90
2603;DHT22;1311;47.966;7.958;2023-04-07T13:34:39;9.10;99.90
2603;DHT22;1311;47.966;7.958;2023-04-07T13:37:07;9.20;99.90
2603;DHT22;1311;47.966;7.958;2023-04-07T13:39:34;9.20;99.90
2603;DHT22;1311;47.966;7.958;2023-04-07T13:42:01;9.20;99.90
2603;DHT22;1311;47.966;7.958;2023-04-07T13:44:29;9.40;99.90
2603;DHT22;1311;47.966;7.958;2023-04-07T13:46:56;9.70;99.90
2603;DHT22;1311;47.966;7.958;2023-04-07T13:49:23;9.80;99.90
2603;DHT22;1311;47.966;7.958;2023-04-07T13:51:50;9.80;99.90
2603;DHT22;1311;47.966;7.958;2023-04-07T13:54:18;9.90;99.90
2603;DHT22;1311;47.966;7.958;2023-04-07T13:56:45;10.00;99.90
2603;DHT22;1311;47.966;7.958;2023-04-07T13:59:13;10.20;99.90
2603;DHT22;1311;47.966;7.958;2023-04-07T14:01:40;10.00;99.90
2603;DHT22;1311;47.966;7.958;2023-04-07T14:04:07;10.30;99.90
2603;DHT22;1311;47.966;7.958;2023-04-07T14:06:34;10.00;99.90
2603;DHT22;1311;47.966;7.958;2023-04-07T14:09:01;10.10;99.90
2603;DHT22;1311;47.966;7.958;2023-04-07T14:11:32;9.90;99.90
2603;DHT22;1311;47.966;7.958;2023-04-07T14:13:59;9.80;99.90
2603;DHT22;1311;47.966;7.958;2023-04-07T14:16:26;9.80;99.90
2603;DHT22;1311;47.966;7.958;2023-04-07T14:18:53;10.60;99.90
2603;DHT22;1311;47.966;7.958;2023-04-07T14:21:20;11.00;99.90
2603;DHT22;1311;47.966;7.958;2023-04-07T14:23:47;11.00;99.90
2603;DHT22;1311;47.966;7.958;2023-04-07T14:26:13;10.70;99.90
2603;DHT22;1311;47.966;7.958;2023-04-07T14:28:42;11.10;99.90
2603;DHT22;1311;47.966;7.958;2023-04-07T14:31:11;11.50;99.90
2603;DHT22;1311;47.966;7.958;2023-04-07T14:33:38;11.30;99.90
2603;DHT22;1311;47.966;7.958;2023-04-07T14:36:05;11.20;99.90
2603;DHT22;1311;47.966;7.958;2023-04-07T14:38:32;11.00;99.90
2603;DHT22;1311;47.966;7.958;2023-04-07T14:40:59;10.50;99.90
2603;DHT22;1311;47.966;7.958;2023-04-07T14:43:27;10.20;99.90
2603;DHT22;1311;47.966;7.958;2023-04-07T14:45:55;9.90;99.90
2603;DHT22;1311;47.966;7.958;2023-04-07T14:48:24;10.20;99.90
2603;DHT22;1311;47.966;7.958;2023-04-07T14:50:51;10.50;99.90
2603;DHT22;1311;47.966;7.958;2023-04-07T14:53:18;10.20;99.90
2603;DHT22;1311;47.966;7.958;2023-04-07T14:55:46;10.00;99.90
2603;DHT22;1311;47.966;7.958;2023-04-07T14:58:12;10.20;99.90
2603;DHT22;1311;47.966;7.958;2023-04-07T15:00:39;10.10;99.90
2603;DHT22;1311;47.966;7.958;2023-04-07T15:03:07;10.00;99.90
2603;DHT22;1311;47.966;7.958;2023-04-07T15:05:34;10.10;99.90
2603;DHT22;1311;47.966;7.958;2023-04-07T15:08:01;10.10;99.90
2603;DHT22;1311;47.966;7.958;2023-04-07T15:10:28;10.00;99.90
2603;DHT22;1311;47.966;7.958;2023-04-07T15:12:55;10.10;99.90
2603;DHT22;1311;47.966;7.958;2023-04-07T15:15:23;10.00;99.90
2603;DHT22;1311;47.966;7.958;2023-04-07T15:17:50;10.00;99.90
2603;DHT22;1311;47.966;7.958;2023-04-07T15:20:18;9.90;99.90
2603;DHT22;1311;47.966;7.958;2023-04-07T15:22:46;9.80;99.90
2603;DHT22;1311;47.966;7.958;2023-04-07T15:25:13;9.90;99.90
2603;DHT22;1311;47.966;7.958;2023-04-07T15:27:41;9.60;99.90
2603;DHT22;1311;47.966;7.958;2023-04-07T15:30:08;9.60;99.90
2603;DHT22;1311;47.966;7.958;2023-04-07T15:32:35;9.50;99.90
2603;DHT22;1311;47.966;7.958;2023-04-07T15:35:03;9.50;99.90
2603;DHT22;1311;47.966;7.958;2023-04-07T15:37:32;9.50;99.90
2603;DHT22;1311;47.966;7.958;2023-04-07T15:39:59;9.60;99.90
2603;DHT22;1311;47.966;7.958;2023-04-07T15:42:26;9.60;99.90
2603;DHT22;1311;47.966;7.958;2023-04-07T15:44:53;9.60;99.90
2603;DHT22;1311;47.966;7.958;2023-04-07T15:47:20;9.70;99.90
2603;DHT22;1311;47.966;7.958;2023-04-07T15:49:47;9.60;99.90
2603;DHT22;1311;47.966;7.958;2023-04-07T15:52:14;9.40;99.90
2603;DHT22;1311;47.966;7.958;2023-04-07T15:54:42;9.40;99.90
2603;DHT22;1311;47.966;7.958;2023-04-07T15:57:09;9.40;99.90
2603;DHT22;1311;47.966;7.958;2023-04-07T15:59:37;9.60;99.90
2603;DHT22;1311;47.966;7.958;2023-04-07T16:02:04;9.60;99.90
2603;DHT22;1311;47.966;7.958;2023-04-07T16:04:32;9.50;99.90
2603;DHT22;1311;47.966;7.958;2023-04-07T16:06:59;9.40;99.90
2603;DHT22;1311;47.966;7.958;2023-04-07T16:09:26;9.30;99.90
2603;DHT22;1311;47.966;7.958;2023-04-07T16:11:54;9.30;99.90
2603;DHT22;1311;47.966;7.958;2023-04-07T16:14:21;9.20;99.90
2603;DHT22;1311;47.966;7.958;2023-04-07T16:16:48;9.10;99.90
2603;DHT22;1311;47.966;7.958;2023-04-07T16:19:18;9.20;99.90
2603;DHT22;1311;47.966;7.958;2023-04-07T16:21:45;9.30;99.90